sensor_id;sensor_type;location;lat;lon;timestamp;pressure;altitude;pressure_sealevel;temperature;humidity
61963;BME280;47927;42.646;23.096;2022-12-07T00:01:06;92077.50;;;7.65;65.89
61963;BME280;47927;42.646;23.096;2022-12-07T00:03:32;92067.50;;;7.86;64.78
61963;BME280;47927;42.646;23.096;2022-12-07T00:05:58;92066.94;;;7.96;64.39
61963;BME280;47927;42.646;23.096;2022-12-07T00:08:24;92084.91;;;8.28;63.81
61963;BME280;47927;42.646;23.096;2022-12-07T00:10:50;92081.91;;;7.84;64.33
61963;BME280;47927;42.646;23.096;2022-12-07T00:13:15;92072.00;;;7.89;64.31
61963;BME280;47927;42.646;23.096;2022-12-07T00:15:41;92083.94;;;7.94;63.91
61963;BME280;47927;42.646;23.096;2022-12-07T00:18:06;92072.03;;;7.70;65.38
61963;BME280;47927;42.646;23.096;2022-12-07T00:20:32;92080.66;;;7.97;64.26
61963;BME280;47927;42.646;23.096;2022-12-07T00:22:58;92080.00;;;7.81;64.79
61963;BME280;47927;42.646;23.096;2022-12-07T00:25:24;92074.44;;;8.02;64.11
61963;BME280;47927;42.646;23.096;2022-12-07T00:27:51;92073.25;;;8.64;62.35
61963;BME280;47927;42.646;23.096;2022-12-07T00:30:17;92072.03;;;8.58;62.04
61963;BME280;47927;42.646;23.096;2022-12-07T00:32:42;92068.59;;;8.28;63.01
61963;BME280;47927;42.646;23.096;2022-12-07T00:35:08;92070.41;;;8.04;63.71
61963;BME280;47927;42.646;23.096;2022-12-07T00:37:33;92073.34;;;7.80;64.88
61963;BME280;47927;42.646;23.096;2022-12-07T00:39:59;92064.00;;;7.56;65.46
61963;BME280;47927;42.646;23.096;2022-12-07T00:42:24;92071.00;;;7.74;65.08
61963;BME280;47927;42.646;23.096;2022-12-07T00:44:50;92071.56;;;7.45;65.91
61963;BME280;47927;42.646;23.096;2022-12-07T00:47:16;92066.59;;;7.56;65.93
61963;BME280;47927;42.646;23.096;2022-12-07T00:49:41;92065.47;;;8.18;63.82
61963;BME280;47927;42.646;23.096;2022-12-07T00:52:07;92069.94;;;8.67;61.64
61963;BME280;47927;42.646;23.096;2022-12-07T00:54:32;92067.22;;;8.83;61.01
61963;BME280;47927;42.646;23.096;2022-12-07T00:56:58;92071.69;;;9.13;60.07
61963;BME280;47927;42.646;23.096;2022-12-07T00:59:24;92062.41;;;8.85;60.42
61963;BME280;47927;42.646;23.096;2022-12-07T01:01:49;92073.28;;;9.21;60.13
61963;BME280;47927;42.646;23.096;2022-12-07T01:04:15;92059.09;;;9.79;57.77
61963;BME280;47927;42.646;23.096;2022-12-07T01:06:40;92059.66;;;9.62;57.82
61963;BME280;47927;42.646;23.096;2022-12-07T01:09:06;92062.59;;;9.60;58.34
61963;BME280;47927;42.646;23.096;2022-12-07T01:11:32;92058.72;;;9.43;58.83
61963;BME280;47927;42.646;23.096;2022-12-07T01:13:58;92061.31;;;9.43;58.51
61963;BME280;47927;42.646;23.096;2022-12-07T01:16:26;92057.66;;;9.18;59.70
61963;BME280;47927;42.646;23.096;2022-12-07T01:18:54;92059.25;;;9.26;59.58
61963;BME280;47927;42.646;23.096;2022-12-07T01:21:28;92049.03;;;9.40;59.20
61963;BME280;47927;42.646;23.096;2022-12-07T01:23:57;92041.41;;;9.28;59.22
61963;BME280;47927;42.646;23.096;2022-12-07T01:26:23;92044.38;;;8.96;60.26
61963;BME280;47927;42.646;23.096;2022-12-07T01:28:50;92040.06;;;9.07;59.72
61963;BME280;47927;42.646;23.096;2022-12-07T01:31:18;92037.19;;;9.46;59.25
61963;BME280;47927;42.646;23.096;2022-12-07T01:33:47;92032.84;;;9.57;58.59
61963;BME280;47927;42.646;23.096;2022-12-07T01:36:19;92039.53;;;8.95;60.65
61963;BME280;47927;42.646;23.096;2022-12-07T01:38:47;92038.47;;;9.29;59.39
61963;BME280;47927;42.646;23.096;2022-12-07T01:41:13;92041.78;;;8.96;59.98
61963;BME280;47927;42.646;23.096;2022-12-07T01:44:19;92030.53;;;8.88;60.83
61963;BME280;47927;42.646;23.096;2022-12-07T01:47:03;92040.78;;;8.51;61.70
61963;BME280;47927;42.646;23.096;2022-12-07T01:52:13;92026.78;;;8.59;61.58
61963;BME280;47927;42.646;23.096;2022-12-07T01:54:42;92030.91;;;8.60;61.69
61963;BME280;47927;42.646;23.096;2022-12-07T01:57:09;92021.88;;;9.07;59.72
61963;BME280;47927;42.646;23.096;2022-12-07T01:59:35;92022.84;;;8.96;60.15
61963;BME280;47927;42.646;23.096;2022-12-07T02:02:02;92028.28;;;9.13;59.33
61963;BME280;47927;42.646;23.096;2022-12-07T02:04:29;92022.09;;;9.25;58.23
61963;BME280;47927;42.646;23.096;2022-12-07T02:06:55;92018.41;;;8.96;59.41
61963;BME280;47927;42.646;23.096;2022-12-07T02:09:22;92012.38;;;8.62;60.47
61963;BME280;47927;42.646;23.096;2022-12-07T02:11:47;92011.56;;;8.35;61.00
61963;BME280;47927;42.646;23.096;2022-12-07T02:14:13;92015.44;;;8.44;61.06
61963;BME280;47927;42.646;23.096;2022-12-07T02:17:14;92007.91;;;8.13;62.18
61963;BME280;47927;42.646;23.096;2022-12-07T02:24:52;92006.97;;;8.74;60.26
61963;BME280;47927;42.646;23.096;2022-12-07T02:30:28;91998.97;;;9.17;58.09
61963;BME280;47927;42.646;23.096;2022-12-07T02:38:18;92001.53;;;9.84;56.10
61963;BME280;47927;42.646;23.096;2022-12-07T02:41:00;91999.72;;;9.51;56.82
61963;BME280;47927;42.646;23.096;2022-12-07T02:43:43;91997.25;;;8.98;58.62
61963;BME280;47927;42.646;23.096;2022-12-07T02:46:20;91986.81;;;8.94;58.90
61963;BME280;47927;42.646;23.096;2022-12-07T02:48:47;91988.63;;;8.37;60.79
61963;BME280;47927;42.646;23.096;2022-12-07T02:51:14;91994.63;;;8.67;60.01
61963;BME280;47927;42.646;23.096;2022-12-07T02:53:41;91989.19;;;8.76;59.91
61963;BME280;47927;42.646;23.096;2022-12-07T03:04:35;91984.28;;;8.71;60.42
61963;BME280;47927;42.646;23.096;2022-12-07T03:07:37;91987.97;;;8.40;61.84
61963;BME280;47927;42.646;23.096;2022-12-07T03:19:08;91994.28;;;8.19;62.72
61963;BME280;47927;42.646;23.096;2022-12-07T03:21:41;91992.91;;;7.57;64.10
61963;BME280;47927;42.646;23.096;2022-12-07T03:24:14;91993.03;;;7.64;64.79
61963;BME280;47927;42.646;23.096;2022-12-07T03:26:44;91988.06;;;7.55;65.25
61963;BME280;47927;42.646;23.096;2022-12-07T03:29:19;91980.44;;;7.85;63.84
61963;BME280;47927;42.646;23.096;2022-12-07T03:31:53;91971.38;;;7.98;63.62
61963;BME280;47927;42.646;23.096;2022-12-07T03:34:29;91989.00;;;8.12;63.19
61963;BME280;47927;42.646;23.096;2022-12-07T03:37:02;91980.47;;;7.89;63.80
61963;BME280;47927;42.646;23.096;2022-12-07T03:42:12;91989.63;;;8.06;63.26
61963;BME280;47927;42.646;23.096;2022-12-07T03:44:38;91967.78;;;7.84;63.79
61963;BME280;47927;42.646;23.096;2022-12-07T03:47:11;91967.75;;;8.03;63.37
61963;BME280;47927;42.646;23.096;2022-12-07T03:50:00;91975.28;;;7.66;64.78
61963;BME280;47927;42.646;23.096;2022-12-07T03:52:54;91981.19;;;8.35;62.84
61963;BME280;47927;42.646;23.096;2022-12-07T03:55:30;91977.53;;;8.13;63.07
61963;BME280;47927;42.646;23.096;2022-12-07T03:58:00;91973.03;;;7.87;63.66
61963;BME280;47927;42.646;23.096;2022-12-07T04:00:28;91963.19;;;7.73;64.56
61963;BME280;47927;42.646;23.096;2022-12-07T04:02:54;91965.75;;;8.19;63.39
61963;BME280;47927;42.646;23.096;2022-12-07T04:05:20;91964.00;;;8.01;63.39
61963;BME280;47927;42.646;23.096;2022-12-07T04:07:47;91973.13;;;8.17;62.97
61963;BME280;47927;42.646;23.096;2022-12-07T04:10:13;91968.91;;;8.59;61.74
61963;BME280;47927;42.646;23.096;2022-12-07T04:12:39;91962.28;;;8.61;61.06
61963;BME280;47927;42.646;23.096;2022-12-07T04:15:05;91954.13;;;8.36;61.78
61963;BME280;47927;42.646;23.096;2022-12-07T04:17:31;91970.53;;;8.17;62.70
61963;BME280;47927;42.646;23.096;2022-12-07T04:19:56;91975.88;;;8.51;61.81
61963;BME280;47927;42.646;23.096;2022-12-07T04:22:22;91969.75;;;8.63;61.28
61963;BME280;47927;42.646;23.096;2022-12-07T04:24:48;91969.41;;;8.98;59.85
61963;BME280;47927;42.646;23.096;2022-12-07T04:27:13;91970.22;;;9.02;59.86
61963;BME280;47927;42.646;23.096;2022-12-07T04:29:39;91970.50;;;9.27;58.93
61963;BME280;47927;42.646;23.096;2022-12-07T04:32:04;91974.47;;;8.84;60.04
61963;BME280;47927;42.646;23.096;2022-12-07T04:34:30;91980.84;;;8.37;61.92
61963;BME280;47927;42.646;23.096;2022-12-07T04:36:55;91984.72;;;8.23;62.45
61963;BME280;47927;42.646;23.096;2022-12-07T04:39:26;91978.03;;;8.22;62.95
61963;BME280;47927;42.646;23.096;2022-12-07T04:41:52;91981.69;;;7.95;63.23
61963;BME280;47927;42.646;23.096;2022-12-07T04:44:19;91972.03;;;7.49;64.87
61963;BME280;47927;42.646;23.096;2022-12-07T04:46:45;91970.75;;;7.59;64.92
61963;BME280;47927;42.646;23.096;2022-12-07T04:49:12;91974.88;;;7.87;63.94
61963;BME280;47927;42.646;23.096;2022-12-07T04:51:37;91971.47;;;7.60;65.09
61963;BME280;47927;42.646;23.096;2022-12-07T04:54:04;91979.47;;;7.51;65.72
61963;BME280;47927;42.646;23.096;2022-12-07T04:56:30;91980.88;;;8.14;63.82
61963;BME280;47927;42.646;23.096;2022-12-07T04:58:55;91967.38;;;8.05;63.67
61963;BME280;47927;42.646;23.096;2022-12-07T05:01:22;91973.06;;;8.37;62.99
61963;BME280;47927;42.646;23.096;2022-12-07T05:03:48;91979.66;;;8.84;61.21
61963;BME280;47927;42.646;23.096;2022-12-07T05:06:14;91964.72;;;9.07;60.02
61963;BME280;47927;42.646;23.096;2022-12-07T05:08:40;91982.78;;;9.30;59.31
61963;BME280;47927;42.646;23.096;2022-12-07T05:11:07;91981.56;;;9.21;59.52
61963;BME280;47927;42.646;23.096;2022-12-07T05:13:33;91980.84;;;9.24;59.50
61963;BME280;47927;42.646;23.096;2022-12-07T05:15:59;91985.56;;;9.15;59.43
61963;BME280;47927;42.646;23.096;2022-12-07T05:18:24;91987.44;;;9.51;58.51
61963;BME280;47927;42.646;23.096;2022-12-07T05:20:51;91980.66;;;9.06;59.64
61963;BME280;47927;42.646;23.096;2022-12-07T05:23:17;91984.06;;;8.53;61.12
61963;BME280;47927;42.646;23.096;2022-12-07T05:25:42;91982.84;;;7.74;63.90
61963;BME280;47927;42.646;23.096;2022-12-07T05:28:08;91980.00;;;7.60;64.95
61963;BME280;47927;42.646;23.096;2022-12-07T05:30:34;91973.88;;;7.49;65.49
61963;BME280;47927;42.646;23.096;2022-12-07T05:32:59;91980.25;;;7.32;66.18
61963;BME280;47927;42.646;23.096;2022-12-07T05:35:25;91978.31;;;7.48;65.75
61963;BME280;47927;42.646;23.096;2022-12-07T05:37:51;91978.63;;;7.89;64.45
61963;BME280;47927;42.646;23.096;2022-12-07T05:40:17;91979.97;;;7.37;65.71
61963;BME280;47927;42.646;23.096;2022-12-07T05:42:44;91975.66;;;7.45;66.07
61963;BME280;47927;42.646;23.096;2022-12-07T05:45:10;91955.34;;;7.70;64.89
61963;BME280;47927;42.646;23.096;2022-12-07T05:47:36;91956.63;;;7.14;66.78
61963;BME280;47927;42.646;23.096;2022-12-07T05:50:03;91972.59;;;7.59;65.68
61963;BME280;47927;42.646;23.096;2022-12-07T05:52:29;91969.28;;;7.00;67.90
61963;BME280;47927;42.646;23.096;2022-12-07T05:54:54;91959.66;;;6.81;68.38
61963;BME280;47927;42.646;23.096;2022-12-07T05:57:20;91966.28;;;6.98;68.18
61963;BME280;47927;42.646;23.096;2022-12-07T05:59:45;91970.97;;;7.73;66.00
61963;BME280;47927;42.646;23.096;2022-12-07T06:02:13;91963.66;;;8.52;63.05
61963;BME280;47927;42.646;23.096;2022-12-07T06:04:42;91958.97;;;8.64;62.26
61963;BME280;47927;42.646;23.096;2022-12-07T06:07:09;91965.41;;;8.74;61.47
61963;BME280;47927;42.646;23.096;2022-12-07T06:09:35;91963.66;;;8.82;61.44
61963;BME280;47927;42.646;23.096;2022-12-07T06:12:01;91956.16;;;8.23;62.63
61963;BME280;47927;42.646;23.096;2022-12-07T06:14:47;91974.06;;;7.60;65.34
61963;BME280;47927;42.646;23.096;2022-12-07T06:17:13;91977.00;;;6.96;67.94
61963;BME280;47927;42.646;23.096;2022-12-07T06:19:39;91984.13;;;7.22;67.41
61963;BME280;47927;42.646;23.096;2022-12-07T06:22:05;91976.25;;;7.58;66.26
61963;BME280;47927;42.646;23.096;2022-12-07T06:24:32;91975.88;;;7.17;67.29
61963;BME280;47927;42.646;23.096;2022-12-07T06:26:58;91970.28;;;7.34;66.91
61963;BME280;47927;42.646;23.096;2022-12-07T06:29:24;91973.97;;;7.75;65.64
61963;BME280;47927;42.646;23.096;2022-12-07T06:31:49;91977.34;;;7.57;65.94
61963;BME280;47927;42.646;23.096;2022-12-07T06:34:18;91976.00;;;7.86;65.30
61963;BME280;47927;42.646;23.096;2022-12-07T06:36:44;91984.94;;;8.38;63.14
61963;BME280;47927;42.646;23.096;2022-12-07T06:39:10;91976.28;;;8.04;64.42
61963;BME280;47927;42.646;23.096;2022-12-07T06:41:36;91982.66;;;7.87;65.02
61963;BME280;47927;42.646;23.096;2022-12-07T06:44:06;91963.66;;;8.52;62.55
61963;BME280;47927;42.646;23.096;2022-12-07T06:46:32;91989.00;;;8.62;62.48
61963;BME280;47927;42.646;23.096;2022-12-07T06:48:58;91981.78;;;9.08;60.73
61963;BME280;47927;42.646;23.096;2022-12-07T06:51:24;91953.50;;;8.70;61.39
61963;BME280;47927;42.646;23.096;2022-12-07T06:53:50;91980.16;;;8.40;62.72
61963;BME280;47927;42.646;23.096;2022-12-07T06:56:15;91987.34;;;8.01;63.78
61963;BME280;47927;42.646;23.096;2022-12-07T06:58:41;91984.00;;;7.77;64.82
61963;BME280;47927;42.646;23.096;2022-12-07T07:01:12;91986.78;;;7.45;66.07
61963;BME280;47927;42.646;23.096;2022-12-07T07:03:38;91976.63;;;7.37;65.99
61963;BME280;47927;42.646;23.096;2022-12-07T07:06:05;91968.94;;;7.63;65.75
61963;BME280;47927;42.646;23.096;2022-12-07T07:08:31;91983.97;;;8.46;62.89
61963;BME280;47927;42.646;23.096;2022-12-07T07:10:57;91969.47;;;8.72;61.81
61963;BME280;47927;42.646;23.096;2022-12-07T07:13:22;91983.06;;;8.92;60.52
61963;BME280;47927;42.646;23.096;2022-12-07T07:15:48;91972.13;;;9.05;60.41
61963;BME280;47927;42.646;23.096;2022-12-07T07:18:14;91986.06;;;9.24;60.27
61963;BME280;47927;42.646;23.096;2022-12-07T07:20:39;91976.53;;;9.35;59.73
61963;BME280;47927;42.646;23.096;2022-12-07T07:23:05;91977.22;;;9.32;59.81
61963;BME280;47927;42.646;23.096;2022-12-07T07:25:31;91983.25;;;9.06;60.16
61963;BME280;47927;42.646;23.096;2022-12-07T07:27:57;91977.44;;;8.86;60.88
61963;BME280;47927;42.646;23.096;2022-12-07T07:30:23;91995.31;;;8.38;62.46
61963;BME280;47927;42.646;23.096;2022-12-07T07:32:49;91989.41;;;8.64;62.06
61963;BME280;47927;42.646;23.096;2022-12-07T07:35:15;92000.38;;;8.80;61.55
61963;BME280;47927;42.646;23.096;2022-12-07T07:38:00;91991.97;;;9.21;60.47
61963;BME280;47927;42.646;23.096;2022-12-07T07:40:26;91989.06;;;10.52;56.58
61963;BME280;47927;42.646;23.096;2022-12-07T07:42:54;91989.59;;;10.24;56.95
61963;BME280;47927;42.646;23.096;2022-12-07T07:45:38;91990.38;;;10.83;55.54
61963;BME280;47927;42.646;23.096;2022-12-07T07:48:04;91992.78;;;10.47;55.71
61963;BME280;47927;42.646;23.096;2022-12-07T07:50:30;92003.19;;;10.47;56.25
61963;BME280;47927;42.646;23.096;2022-12-07T07:52:57;91991.88;;;10.29;56.36
61963;BME280;47927;42.646;23.096;2022-12-07T07:55:23;91987.81;;;10.90;54.98
61963;BME280;47927;42.646;23.096;2022-12-07T07:57:48;91993.81;;;10.98;54.68
61963;BME280;47927;42.646;23.096;2022-12-07T08:00:15;91993.53;;;10.52;54.95
61963;BME280;47927;42.646;23.096;2022-12-07T08:02:42;91995.03;;;10.53;55.63
61963;BME280;47927;42.646;23.096;2022-12-07T08:05:08;91996.66;;;10.71;55.27
61963;BME280;47927;42.646;23.096;2022-12-07T08:07:34;92002.00;;;10.97;54.26
61963;BME280;47927;42.646;23.096;2022-12-07T08:09:59;91992.72;;;10.40;56.11
61963;BME280;47927;42.646;23.096;2022-12-07T08:12:25;91986.22;;;10.68;55.75
61963;BME280;47927;42.646;23.096;2022-12-07T08:14:51;91981.69;;;11.41;53.02
61963;BME280;47927;42.646;23.096;2022-12-07T08:17:16;91981.94;;;11.08;54.57
61963;BME280;47927;42.646;23.096;2022-12-07T08:19:42;91990.44;;;12.21;51.68
61963;BME280;47927;42.646;23.096;2022-12-07T08:22:07;91990.25;;;13.39;48.73
61963;BME280;47927;42.646;23.096;2022-12-07T08:24:34;91983.06;;;13.50;48.00
61963;BME280;47927;42.646;23.096;2022-12-07T08:26:59;91984.31;;;14.50;45.57
61963;BME280;47927;42.646;23.096;2022-12-07T08:29:25;91986.47;;;15.38;43.08
61963;BME280;47927;42.646;23.096;2022-12-07T08:31:51;91975.44;;;15.50;42.47
61963;BME280;47927;42.646;23.096;2022-12-07T08:34:17;91985.31;;;15.08;43.58
61963;BME280;47927;42.646;23.096;2022-12-07T08:36:42;91983.34;;;15.46;42.51
61963;BME280;47927;42.646;23.096;2022-12-07T08:39:08;91993.66;;;15.30;42.45
61963;BME280;47927;42.646;23.096;2022-12-07T08:41:33;91934.22;;;13.26;46.42
61963;BME280;47927;42.646;23.096;2022-12-07T08:43:59;91983.72;;;14.31;44.97
61963;BME280;47927;42.646;23.096;2022-12-07T08:46:50;91988.94;;;12.59;48.66
61963;BME280;47927;42.646;23.096;2022-12-07T08:49:21;91980.56;;;13.29;47.89
61963;BME280;47927;42.646;23.096;2022-12-07T08:51:49;91982.59;;;12.03;50.49
61963;BME280;47927;42.646;23.096;2022-12-07T08:54:16;91980.97;;;13.09;48.18
61963;BME280;47927;42.646;23.096;2022-12-07T08:56:43;91982.56;;;12.67;48.63
61963;BME280;47927;42.646;23.096;2022-12-07T08:59:10;91975.47;;;12.57;49.02
61963;BME280;47927;42.646;23.096;2022-12-07T09:01:37;91978.47;;;11.91;50.47
61963;BME280;47927;42.646;23.096;2022-12-07T09:04:03;91973.56;;;11.68;52.12
61963;BME280;47927;42.646;23.096;2022-12-07T09:06:29;91966.47;;;11.54;52.12
61963;BME280;47927;42.646;23.096;2022-12-07T09:08:58;91970.59;;;11.73;52.23
61963;BME280;47927;42.646;23.096;2022-12-07T09:11:25;91956.66;;;11.26;53.35
61963;BME280;47927;42.646;23.096;2022-12-07T09:13:50;91957.00;;;11.17;53.70
61963;BME280;47927;42.646;23.096;2022-12-07T09:16:16;91960.00;;;11.20;53.60
61963;BME280;47927;42.646;23.096;2022-12-07T09:18:41;91958.97;;;11.53;53.55
61963;BME280;47927;42.646;23.096;2022-12-07T09:21:07;91965.00;;;12.75;50.73
61963;BME280;47927;42.646;23.096;2022-12-07T09:23:33;91957.03;;;13.11;48.17
61963;BME280;47927;42.646;23.096;2022-12-07T09:26:17;91947.16;;;12.23;50.34
61963;BME280;47927;42.646;23.096;2022-12-07T09:28:42;91947.88;;;12.42;50.65
61963;BME280;47927;42.646;23.096;2022-12-07T09:31:08;91950.41;;;12.92;48.75
61963;BME280;47927;42.646;23.096;2022-12-07T09:33:34;91956.81;;;12.55;50.29
61963;BME280;47927;42.646;23.096;2022-12-07T09:35:59;91941.75;;;13.09;50.21
61963;BME280;47927;42.646;23.096;2022-12-07T09:38:25;91939.47;;;13.92;48.42
61963;BME280;47927;42.646;23.096;2022-12-07T09:40:52;91922.34;;;15.04;45.12
61963;BME280;47927;42.646;23.096;2022-12-07T09:43:22;91936.06;;;15.19;43.77
61963;BME280;47927;42.646;23.096;2022-12-07T09:45:51;91931.06;;;14.60;46.30
61963;BME280;47927;42.646;23.096;2022-12-07T09:48:26;91921.72;;;15.27;43.87
61963;BME280;47927;42.646;23.096;2022-12-07T09:50:55;91928.47;;;14.94;44.75
61963;BME280;47927;42.646;23.096;2022-12-07T09:53:36;91924.56;;;15.10;44.03
61963;BME280;47927;42.646;23.096;2022-12-07T09:56:02;91921.47;;;14.43;46.08
61963;BME280;47927;42.646;23.096;2022-12-07T09:58:29;91922.44;;;13.66;47.45
61963;BME280;47927;42.646;23.096;2022-12-07T10:01:16;91907.81;;;12.91;50.48
61963;BME280;47927;42.646;23.096;2022-12-07T10:03:49;91917.19;;;12.74;50.63
61963;BME280;47927;42.646;23.096;2022-12-07T10:06:15;91913.59;;;12.11;52.06
61963;BME280;47927;42.646;23.096;2022-12-07T10:08:41;91909.06;;;11.69;53.42
61963;BME280;47927;42.646;23.096;2022-12-07T10:11:09;91912.84;;;12.00;52.32
61963;BME280;47927;42.646;23.096;2022-12-07T10:14:11;91916.50;;;12.45;50.98
61963;BME280;47927;42.646;23.096;2022-12-07T10:16:42;91898.28;;;12.06;51.84
61963;BME280;47927;42.646;23.096;2022-12-07T10:19:24;91893.78;;;12.31;51.51
61963;BME280;47927;42.646;23.096;2022-12-07T10:22:16;91894.50;;;12.43;51.16
61963;BME280;47927;42.646;23.096;2022-12-07T10:24:43;91892.97;;;12.63;50.50
61963;BME280;47927;42.646;23.096;2022-12-07T10:27:19;91888.03;;;12.94;50.15
61963;BME280;47927;42.646;23.096;2022-12-07T10:29:51;91890.44;;;12.27;50.56
61963;BME280;47927;42.646;23.096;2022-12-07T10:34:43;91885.75;;;12.96;49.39
61963;BME280;47927;42.646;23.096;2022-12-07T10:37:20;91881.41;;;12.57;50.40
61963;BME280;47927;42.646;23.096;2022-12-07T10:40:24;91872.81;;;12.60;50.59
61963;BME280;47927;42.646;23.096;2022-12-07T10:48:28;91866.88;;;12.49;50.59
61963;BME280;47927;42.646;23.096;2022-12-07T10:51:14;91862.78;;;12.44;50.94
61963;BME280;47927;42.646;23.096;2022-12-07T10:53:57;91869.53;;;12.27;51.60
61963;BME280;47927;42.646;23.096;2022-12-07T11:01:54;91852.25;;;12.69;50.38
61963;BME280;47927;42.646;23.096;2022-12-07T11:04:38;91852.03;;;12.10;50.99
61963;BME280;47927;42.646;23.096;2022-12-07T11:10:07;91849.50;;;13.02;48.91
61963;BME280;47927;42.646;23.096;2022-12-07T11:18:52;91841.97;;;11.69;52.22
61963;BME280;47927;42.646;23.096;2022-12-07T11:24:16;91837.41;;;12.45;49.97
61963;BME280;47927;42.646;23.096;2022-12-07T11:32:58;91832.50;;;12.61;48.69
61963;BME280;47927;42.646;23.096;2022-12-07T11:38:03;91816.84;;;13.31;46.73
61963;BME280;47927;42.646;23.096;2022-12-07T11:40:35;91816.66;;;13.60;46.46
61963;BME280;47927;42.646;23.096;2022-12-07T11:43:31;91817.84;;;12.82;47.98
61963;BME280;47927;42.646;23.096;2022-12-07T11:48:35;91820.66;;;12.24;49.87
61963;BME280;47927;42.646;23.096;2022-12-07T11:51:07;91815.13;;;12.08;49.99
61963;BME280;47927;42.646;23.096;2022-12-07T11:53:45;91815.66;;;12.69;48.67
61963;BME280;47927;42.646;23.096;2022-12-07T11:56:15;91817.50;;;12.72;48.64
61963;BME280;47927;42.646;23.096;2022-12-07T12:01:35;91818.75;;;12.46;49.01
61963;BME280;47927;42.646;23.096;2022-12-07T12:06:40;91812.09;;;12.13;50.28
61963;BME280;47927;42.646;23.096;2022-12-07T12:09:12;91807.25;;;12.26;49.96
61963;BME280;47927;42.646;23.096;2022-12-07T12:17:36;91797.91;;;12.21;50.11
61963;BME280;47927;42.646;23.096;2022-12-07T12:20:27;91790.09;;;12.07;50.67
61963;BME280;47927;42.646;23.096;2022-12-07T12:23:10;91788.63;;;12.97;48.45
61963;BME280;47927;42.646;23.096;2022-12-07T12:25:46;91781.75;;;12.59;49.20
61963;BME280;47927;42.646;23.096;2022-12-07T12:31:14;91778.47;;;12.33;49.55
61963;BME280;47927;42.646;23.096;2022-12-07T12:33:50;91768.50;;;11.99;50.44
61963;BME280;47927;42.646;23.096;2022-12-07T12:36:18;91774.75;;;12.27;49.94
61963;BME280;47927;42.646;23.096;2022-12-07T12:49:41;91773.31;;;12.96;48.02
61963;BME280;47927;42.646;23.096;2022-12-07T12:57:35;91771.03;;;12.24;48.81
61963;BME280;47927;42.646;23.096;2022-12-07T13:00:17;91770.50;;;12.65;47.98
61963;BME280;47927;42.646;23.096;2022-12-07T13:02:53;91772.09;;;12.45;48.81
61963;BME280;47927;42.646;23.096;2022-12-07T13:05:22;91769.13;;;12.36;48.97
61963;BME280;47927;42.646;23.096;2022-12-07T13:23:36;91749.09;;;12.85;47.02
61963;BME280;47927;42.646;23.096;2022-12-07T13:31:16;91775.56;;;12.09;50.13
61963;BME280;47927;42.646;23.096;2022-12-07T13:33:45;91779.22;;;12.34;49.11
61963;BME280;47927;42.646;23.096;2022-12-07T13:36:23;91780.72;;;12.35;48.89
61963;BME280;47927;42.646;23.096;2022-12-07T13:39:00;91776.72;;;11.66;50.73
61963;BME280;47927;42.646;23.096;2022-12-07T13:41:35;91771.13;;;11.96;50.02
61963;BME280;47927;42.646;23.096;2022-12-07T13:44:15;91782.31;;;11.71;50.99
61963;BME280;47927;42.646;23.096;2022-12-07T13:46:54;91784.56;;;11.66;50.78
61963;BME280;47927;42.646;23.096;2022-12-07T13:49:25;91773.00;;;11.59;51.04
61963;BME280;47927;42.646;23.096;2022-12-07T13:51:52;91763.66;;;12.05;49.60
61963;BME280;47927;42.646;23.096;2022-12-07T13:54:19;91774.50;;;11.85;50.16
61963;BME280;47927;42.646;23.096;2022-12-07T13:56:50;91774.16;;;11.55;50.55
61963;BME280;47927;42.646;23.096;2022-12-07T13:59:24;91778.59;;;11.69;50.59
61963;BME280;47927;42.646;23.096;2022-12-07T14:02:26;91774.84;;;11.84;50.48
61963;BME280;47927;42.646;23.096;2022-12-07T14:05:07;91773.75;;;11.24;52.05
61963;BME280;47927;42.646;23.096;2022-12-07T14:07:33;91762.22;;;11.50;51.41
61963;BME280;47927;42.646;23.096;2022-12-07T14:10:01;91772.28;;;11.30;52.01
61963;BME280;47927;42.646;23.096;2022-12-07T14:12:29;91780.09;;;11.52;51.30
61963;BME280;47927;42.646;23.096;2022-12-07T14:14:56;91774.13;;;11.66;50.82
61963;BME280;47927;42.646;23.096;2022-12-07T14:17:24;91777.84;;;11.68;50.78
61963;BME280;47927;42.646;23.096;2022-12-07T14:19:58;91783.06;;;11.54;50.65
61963;BME280;47927;42.646;23.096;2022-12-07T14:22:38;91783.44;;;11.16;51.71
61963;BME280;47927;42.646;23.096;2022-12-07T14:27:59;91788.69;;;11.49;50.90
61963;BME280;47927;42.646;23.096;2022-12-07T14:30:30;91789.03;;;11.58;51.03
61963;BME280;47927;42.646;23.096;2022-12-07T14:32:59;91782.97;;;12.22;49.27
61963;BME280;47927;42.646;23.096;2022-12-07T14:35:26;91776.66;;;12.23;49.03
61963;BME280;47927;42.646;23.096;2022-12-07T14:37:52;91783.00;;;12.18;49.01
61963;BME280;47927;42.646;23.096;2022-12-07T14:40:21;91768.16;;;11.69;50.19
61963;BME280;47927;42.646;23.096;2022-12-07T14:42:50;91785.69;;;11.25;51.77
61963;BME280;47927;42.646;23.096;2022-12-07T14:45:21;91783.09;;;11.47;51.31
61963;BME280;47927;42.646;23.096;2022-12-07T14:47:47;91777.88;;;11.29;51.79
61963;BME280;47927;42.646;23.096;2022-12-07T14:50:15;91777.88;;;11.57;51.04
61963;BME280;47927;42.646;23.096;2022-12-07T14:52:43;91780.84;;;11.52;50.99
61963;BME280;47927;42.646;23.096;2022-12-07T14:55:30;91784.19;;;11.24;51.83
61963;BME280;47927;42.646;23.096;2022-12-07T14:57:56;91772.25;;;11.02;52.15
61963;BME280;47927;42.646;23.096;2022-12-07T15:00:25;91783.44;;;11.38;51.43
61963;BME280;47927;42.646;23.096;2022-12-07T15:02:51;91784.94;;;11.64;50.65
61963;BME280;47927;42.646;23.096;2022-12-07T15:05:17;91785.31;;;11.34;51.58
61963;BME280;47927;42.646;23.096;2022-12-07T15:07:44;91789.03;;;11.65;50.59
61963;BME280;47927;42.646;23.096;2022-12-07T15:10:17;91801.72;;;11.67;50.40
61963;BME280;47927;42.646;23.096;2022-12-07T15:12:43;91791.25;;;11.02;51.75
61963;BME280;47927;42.646;23.096;2022-12-07T15:15:09;91805.81;;;11.28;51.64